createdAt,value
2022-08-03T00:00:30.815Z,99332.19
2022-08-03T00:03:33.634Z,99328.66
2022-08-03T00:06:37.318Z,99327.03
2022-08-03T00:09:39.764Z,99328.72
2022-08-03T00:12:42.016Z,99325.28
2022-08-03T00:15:44.274Z,99326.38
2022-08-03T00:18:46.557Z,99328.81
2022-08-03T00:21:48.740Z,99332.56
2022-08-03T00:24:50.994Z,99330.37
2022-08-03T00:27:53.252Z,99327.97
2022-08-03T00:30:56.766Z,99331.22
2022-08-03T00:34:03.221Z,99331.25
2022-08-03T00:37:05.875Z,99338.31
2022-08-03T00:40:10.104Z,99339.16
2022-08-03T00:43:13.109Z,99335.94
2022-08-03T00:46:20.854Z,99334.56
2022-08-03T00:49:24.253Z,99340.53
2022-08-03T00:52:26.546Z,99339.69
2022-08-03T00:55:29.438Z,99344.56
2022-08-03T00:58:32.142Z,99342.97
2022-08-03T01:01:34.466Z,99337.84
2022-08-03T01:04:36.792Z,99342.72
2022-08-03T01:08:03.649Z,99348.13
2022-08-03T01:12:00.811Z,99352.69
2022-08-03T01:15:21.141Z,99355.69
2022-08-03T01:18:39.356Z,99356.22
2022-08-03T01:22:20.360Z,99362.19
2022-08-03T01:25:45.061Z,99348.66
2022-08-03T01:28:59.355Z,99362.44
2022-08-03T01:32:58.041Z,99359.50
2022-08-03T01:35:43.440Z,99361.13
2022-08-03T01:38:51.140Z,99356.78
2022-08-03T01:42:00.001Z,99360.53
2022-08-03T01:45:03.909Z,99354.31
2022-08-03T01:48:07.043Z,99354.28
2022-08-03T01:51:10.787Z,99365.31
2022-08-03T01:54:14.010Z,99351.50
2022-08-03T01:57:17.773Z,99360.63
2022-08-03T02:00:20.433Z,99353.59
2022-08-03T02:03:23.477Z,99360.59
2022-08-03T02:07:02.189Z,99360.03
2022-08-03T02:09:51.798Z,99361.13
2022-08-03T02:12:54.883Z,99364.38
2022-08-03T02:15:58.326Z,99360.03
2022-08-03T02:19:04.295Z,99365.88
2022-08-03T02:22:10.556Z,99359.84
2022-08-03T02:25:14.506Z,99364.97
2022-08-03T02:28:20.103Z,99365.94
2022-08-03T02:31:29.807Z,99361.59
2022-08-03T02:34:34.274Z,99363.25
2022-08-03T02:37:42.727Z,99359.34
2022-08-03T02:40:50.165Z,99363.38
2022-08-03T02:44:06.616Z,99374.44
2022-08-03T02:47:11.159Z,99367.63
2022-08-03T02:50:14.862Z,99367.81
2022-08-03T02:53:18.418Z,99368.09
2022-08-03T02:56:24.466Z,99371.53
2022-08-03T02:59:29.935Z,99372.75
2022-08-03T03:02:33.084Z,99376.78
2022-08-03T03:05:52.448Z,99374.72
2022-08-03T03:08:59.879Z,99374.03
2022-08-03T03:12:03.129Z,99371.13
2022-08-03T03:15:06.661Z,99367.06
2022-08-03T03:18:10.167Z,99369.94
2022-08-03T03:21:13.477Z,99370.25
2022-08-03T03:24:16.513Z,99373.69
2022-08-03T03:27:18.921Z,99370.25
2022-08-03T03:30:23.362Z,99379.22
2022-08-03T03:33:28.260Z,99370.84
2022-08-03T03:36:31.142Z,99367.59
2022-08-03T03:39:33.647Z,99370.97
2022-08-03T03:42:36.102Z,99370.53
2022-08-03T03:45:38.737Z,99374.41
2022-08-03T03:48:41.004Z,99379.16
2022-08-03T03:51:43.284Z,99381.56
2022-08-03T03:54:45.787Z,99377.41
2022-08-03T03:57:47.998Z,99379.62
2022-08-03T04:00:50.965Z,99373.75
2022-08-03T04:03:53.206Z,99380.50
2022-08-03T04:07:14.127Z,99379.97
2022-08-03T04:10:39.642Z,99386.56
2022-08-03T04:13:55.317Z,99390.03
2022-08-03T04:17:05.264Z,99386.75
2022-08-03T04:20:07.983Z,99391.06
2022-08-03T04:23:13.717Z,99393.91
2022-08-03T04:26:21.284Z,99402.28
2022-08-03T04:29:25.327Z,99403.72
2022-08-03T04:32:28.830Z,99394.06
2022-08-03T04:35:58.568Z,99398.16
2022-08-03T04:39:03.590Z,99407.72
2022-08-03T04:42:09.182Z,99408.88
2022-08-03T04:45:16.210Z,99414.19
2022-08-03T04:48:20.105Z,99410.66
2022-08-03T04:51:22.407Z,99415.28
2022-08-03T04:54:24.894Z,99417.88
2022-08-03T04:57:27.108Z,99421.75
2022-08-03T05:00:29.692Z,99426.06
2022-08-03T05:03:32.242Z,99429.63
2022-08-03T05:06:34.600Z,99430.37
2022-08-03T05:09:50.652Z,99433.31
2022-08-03T05:12:55.139Z,99434.53
2022-08-03T05:15:57.428Z,99431.09
2022-08-03T05:18:59.587Z,99435.13
2022-08-03T05:22:01.849Z,99442.19
2022-08-03T05:25:04.475Z,99445.41
2022-08-03T05:28:06.710Z,99454.34
2022-08-03T05:31:08.932Z,99447.91
2022-08-03T05:34:11.124Z,99454.81
2022-08-03T05:37:13.313Z,99452.69
2022-08-03T05:40:15.550Z,99447.94
2022-08-03T05:43:17.719Z,99449.22
2022-08-03T05:46:20.976Z,99452.41
2022-08-03T05:49:23.248Z,99458.19
2022-08-03T05:52:25.569Z,99459.25
2022-08-03T05:55:28.122Z,99460.28
2022-08-03T05:58:31.033Z,99465.00
2022-08-03T06:01:35.767Z,99468.22
2022-08-03T06:04:38.122Z,99472.72
2022-08-03T06:07:40.413Z,99477.31
2022-08-03T06:10:42.703Z,99478.94
2022-08-03T06:13:46.088Z,99474.97
2022-08-03T06:16:48.414Z,99479.84
2022-08-03T06:19:53.437Z,99479.22
2022-08-03T06:23:00.210Z,99485.16
2022-08-03T06:26:03.485Z,99488.69
2022-08-03T06:29:05.652Z,99474.34
2022-08-03T06:32:10.890Z,99482.06
2022-08-03T06:35:14.032Z,99480.63
2022-08-03T06:38:16.336Z,99479.22
2022-08-03T06:41:18.800Z,99483.69
2022-08-03T06:44:21.148Z,99482.56
2022-08-03T06:47:23.331Z,99499.31
2022-08-03T06:50:26.319Z,99489.56
2022-08-03T06:53:28.623Z,99483.19
2022-08-03T06:56:30.830Z,99491.13
2022-08-03T07:00:10.526Z,99492.44
2022-08-03T07:02:58.308Z,99499.56
2022-08-03T07:06:01.053Z,99487.91
2022-08-03T07:09:03.377Z,99490.91
2022-08-03T07:12:06.719Z,99495.22
2022-08-03T07:15:09.314Z,99492.13
2022-08-03T07:18:28.315Z,99491.19
2022-08-03T07:21:32.255Z,99496.69
2022-08-03T07:24:34.690Z,99497.19
2022-08-03T07:27:38.315Z,99488.44
2022-08-03T07:30:40.889Z,99494.72
2022-08-03T07:33:43.104Z,99493.34
2022-08-03T07:36:45.361Z,99492.91
2022-08-03T07:39:47.612Z,99493.44
2022-08-03T07:42:53.311Z,99497.87
2022-08-03T07:45:55.797Z,99494.12
2022-08-03T07:48:58.146Z,99497.91
2022-08-03T07:52:19.100Z,99501.81
2022-08-03T07:55:25.537Z,99490.91
2022-08-03T07:58:27.776Z,99485.47
2022-08-03T08:01:32.817Z,99494.03
2022-08-03T08:04:35.189Z,99498.59
2022-08-03T08:07:38.651Z,99490.37
2022-08-03T08:10:41.147Z,99490.84
2022-08-03T08:13:43.371Z,99502.16
2022-08-03T08:16:46.395Z,99500.94
2022-08-03T08:19:51.627Z,99496.94
2022-08-03T08:22:57.122Z,99495.94
2022-08-03T08:26:00.335Z,99497.78
2022-08-03T08:29:03.646Z,99507.78
2022-08-03T08:32:05.983Z,99496.81
2022-08-03T08:35:08.885Z,99499.72
2022-08-03T08:38:11.093Z,99500.34
2022-08-03T08:41:14.394Z,99491.37
2022-08-03T08:44:16.588Z,99494.69
2022-08-03T08:47:30.491Z,99493.19
2022-08-03T08:50:54.371Z,99497.22
2022-08-03T08:53:58.011Z,99491.00
2022-08-03T08:57:03.049Z,99487.88
2022-08-03T09:00:14.804Z,99484.16
2022-08-03T09:03:22.747Z,99486.44
2022-08-03T09:06:31.954Z,99481.44
2022-08-03T09:10:10.925Z,99483.31
2022-08-03T09:12:56.342Z,99487.72
2022-08-03T09:16:21.836Z,99476.44
2022-08-03T09:19:24.042Z,99471.94
2022-08-03T09:22:28.405Z,99477.56
2022-08-03T09:25:41.807Z,99468.75
2022-08-03T09:28:56.523Z,99472.81
2022-08-03T09:32:06.588Z,99462.31
2022-08-03T09:35:09.491Z,99467.41
2022-08-03T09:38:16.113Z,99468.22
2022-08-03T09:41:19.040Z,99478.22
2022-08-03T09:44:34.840Z,99463.44
2022-08-03T09:47:37.166Z,99463.88
2022-08-03T09:50:58.511Z,99461.13
2022-08-03T09:54:03.986Z,99449.84
2022-08-03T09:57:07.330Z,99448.72
2022-08-03T10:00:14.791Z,99450.22
2022-08-03T10:03:17.177Z,99445.50
2022-08-03T10:06:20.130Z,99450.66
2022-08-03T10:09:22.364Z,99443.63
2022-08-03T10:12:25.135Z,99443.13
2022-08-03T10:16:23.485Z,99437.34
2022-08-03T10:18:49.732Z,99430.84
2022-08-03T10:21:58.361Z,99429.03
2022-08-03T10:25:04.541Z,99428.25
2022-08-03T10:28:07.140Z,99418.72
2022-08-03T10:31:10.394Z,99432.47
2022-08-03T10:34:23.450Z,99430.88
2022-08-03T10:37:27.964Z,99417.59
2022-08-03T10:40:49.358Z,99419.72
2022-08-03T10:44:11.587Z,99423.44
2022-08-03T10:47:13.893Z,99420.22
2022-08-03T10:50:16.854Z,99414.87
2022-08-03T10:53:55.213Z,99410.59
2022-08-03T10:57:17.617Z,99407.00
2022-08-03T11:00:23.820Z,99406.87
2022-08-03T11:03:26.111Z,99397.06
2022-08-03T11:06:28.626Z,99396.88
2022-08-03T11:09:53.700Z,99391.37
2022-08-03T11:13:06.971Z,99390.56
2022-08-03T11:16:23.153Z,99386.59
2022-08-03T11:19:57.373Z,99377.63
2022-08-03T11:23:01.643Z,99376.72
2022-08-03T11:26:22.718Z,99375.63
2022-08-03T11:29:29.992Z,99373.06
2022-08-03T11:32:38.450Z,99363.56
2022-08-03T11:35:58.789Z,99370.31
2022-08-03T11:39:16.841Z,99366.78
2022-08-03T11:42:22.547Z,99362.47
2022-08-03T11:45:24.835Z,99353.00
2022-08-03T11:48:32.453Z,99362.59
2022-08-03T11:51:35.244Z,99362.06
2022-08-03T11:54:37.968Z,99356.97
2022-08-03T11:59:00.850Z,99350.56
2022-08-03T12:01:07.741Z,99346.34
2022-08-03T12:04:11.461Z,99342.56
2022-08-03T12:07:13.769Z,99345.75
2022-08-03T12:10:37.585Z,99345.03
2022-08-03T12:14:45.352Z,99339.28
2022-08-03T12:17:07.309Z,99334.81
2022-08-03T12:20:22.055Z,99335.34
2022-08-03T12:23:38.329Z,99333.19
2022-08-03T12:26:58.323Z,99332.25
2022-08-03T12:30:02.451Z,99330.09
2022-08-03T12:33:26.843Z,99325.03
2022-08-03T12:36:31.026Z,99328.53
2022-08-03T12:39:33.269Z,99319.53
2022-08-03T12:42:37.530Z,99319.47
2022-08-03T12:45:39.827Z,99315.37
2022-08-03T12:49:04.594Z,99316.75
2022-08-03T12:52:07.685Z,99309.03
2022-08-03T12:55:19.897Z,99313.41
2022-08-03T12:58:34.354Z,99297.91
2022-08-03T13:01:37.668Z,99301.28
2022-08-03T13:04:39.994Z,99299.03
2022-08-03T13:07:45.862Z,99306.44
2022-08-03T13:10:48.665Z,99293.81
2022-08-03T13:13:52.458Z,99289.75
2022-08-03T13:16:54.650Z,99291.19
2022-08-03T13:19:56.841Z,99286.56
2022-08-03T13:23:00.963Z,99286.53
2022-08-03T13:26:03.409Z,99282.22
2022-08-03T13:29:05.618Z,99277.19
2022-08-03T13:32:08.007Z,99270.28
2022-08-03T13:35:11.009Z,99281.41
2022-08-03T13:38:18.856Z,99280.34
2022-08-03T13:41:29.108Z,99274.97
2022-08-03T13:44:37.009Z,99267.44
2022-08-03T13:47:39.209Z,99271.78
2022-08-03T13:50:43.204Z,99266.25
2022-08-03T13:53:45.559Z,99265.09
2022-08-03T13:56:52.939Z,99264.63
2022-08-03T13:59:55.183Z,99262.09
2022-08-03T14:03:05.365Z,99254.84
2022-08-03T14:06:11.646Z,99258.44
2022-08-03T14:09:14.724Z,99249.62
2022-08-03T14:12:16.948Z,99249.50
2022-08-03T14:15:19.203Z,99243.25
2022-08-03T14:18:28.970Z,99242.16
2022-08-03T14:21:36.111Z,99237.94
2022-08-03T14:24:38.313Z,99229.00
2022-08-03T14:27:40.502Z,99224.53
2022-08-03T14:30:43.124Z,99228.41
2022-08-03T14:33:45.331Z,99230.72
2022-08-03T14:36:47.507Z,99222.78
2022-08-03T14:40:05.222Z,99223.06
2022-08-03T14:43:07.629Z,99221.47
2022-08-03T14:46:09.841Z,99223.53
2022-08-03T14:50:33.700Z,99218.41
2022-08-03T14:52:34.251Z,99220.66
2022-08-03T14:55:38.195Z,99212.97
2022-08-03T14:58:41.229Z,99212.19
2022-08-03T15:02:06.261Z,99209.16
2022-08-03T15:05:06.131Z,99210.94
2022-08-03T15:08:09.373Z,99205.69
2022-08-03T15:11:11.692Z,99217.06
2022-08-03T15:14:14.635Z,99213.88
2022-08-03T15:17:17.354Z,99217.69
2022-08-03T15:20:26.494Z,99216.37
2022-08-03T15:23:38.798Z,99210.56
2022-08-03T15:26:41.887Z,99215.34
2022-08-03T15:30:05.083Z,99211.88
2022-08-03T15:33:06.547Z,99208.19
2022-08-03T15:36:08.748Z,99204.09
2022-08-03T15:39:11.025Z,99205.06
2022-08-03T15:42:13.296Z,99203.91
2022-08-03T15:45:17.860Z,99200.81
2022-08-03T15:48:26.582Z,99202.59
2022-08-03T15:51:28.944Z,99207.06
2022-08-03T15:54:31.273Z,99197.88
2022-08-03T15:57:33.519Z,99201.09
2022-08-03T16:00:59.807Z,99203.94
2022-08-03T16:04:02.773Z,99193.72
2022-08-03T16:07:06.913Z,99191.09
2022-08-03T16:10:14.811Z,99196.31
2022-08-03T16:13:16.993Z,99188.31
2022-08-03T16:16:19.588Z,99185.69
2022-08-03T16:19:21.782Z,99190.44
2022-08-03T16:22:25.094Z,99179.25
2022-08-03T16:25:28.122Z,99179.25
2022-08-03T16:28:31.183Z,99184.97
2022-08-03T16:31:33.408Z,99180.34
2022-08-03T16:34:36.950Z,99186.53
2022-08-03T16:37:39.641Z,99191.16
2022-08-03T16:40:42.297Z,99176.72
2022-08-03T16:43:44.484Z,99183.84
2022-08-03T16:46:46.893Z,99182.19
2022-08-03T16:49:54.353Z,99178.87
2022-08-03T16:52:58.415Z,99187.09
2022-08-03T16:56:00.765Z,99185.97
2022-08-03T16:59:04.318Z,99191.56
2022-08-03T17:02:12.708Z,99189.25
2022-08-03T17:05:14.898Z,99195.53
2022-08-03T17:08:26.857Z,99188.09
2022-08-03T17:11:29.565Z,99195.16
2022-08-03T17:14:34.280Z,99195.03
2022-08-03T17:17:53.802Z,99198.94
2022-08-03T17:20:58.562Z,99200.91
2022-08-03T17:24:12.259Z,99206.91
2022-08-03T17:28:41.765Z,99208.22
2022-08-03T17:30:59.678Z,99204.28
2022-08-03T17:34:04.617Z,99206.84
2022-08-03T17:37:26.945Z,99216.69
2022-08-03T17:40:29.610Z,99218.50
2022-08-03T17:44:14.247Z,99218.34
2022-08-03T17:46:56.269Z,99222.69
2022-08-03T17:50:00.814Z,99217.28
2022-08-03T17:53:15.096Z,99218.91
2022-08-03T17:56:40.306Z,99225.22
2022-08-03T17:59:58.445Z,99218.47
2022-08-03T18:03:25.153Z,99223.91
2022-08-03T18:06:31.146Z,99222.28
2022-08-03T18:10:05.926Z,99233.38
2022-08-03T18:13:04.091Z,99229.84
2022-08-03T18:16:18.194Z,99231.22
2022-08-03T18:19:21.477Z,99238.44
2022-08-03T18:22:44.277Z,99236.44
2022-08-03T18:25:56.155Z,99236.69
2022-08-03T18:29:01.473Z,99243.50
2022-08-03T18:32:13.333Z,99245.44
2022-08-03T18:35:16.196Z,99241.78
2022-08-03T18:38:19.552Z,99249.66
2022-08-03T18:41:32.311Z,99249.62
2022-08-03T18:44:52.538Z,99253.28
2022-08-03T18:47:58.683Z,99255.06
2022-08-03T18:51:28.869Z,99256.69
2022-08-03T18:55:20.339Z,99259.78
2022-08-03T18:58:35.423Z,99263.19
2022-08-03T19:02:00.250Z,99266.84
2022-08-03T19:05:09.008Z,99271.91
2022-08-03T19:08:29.125Z,99270.16
2022-08-03T19:12:14.560Z,99269.75
2022-08-03T19:15:06.694Z,99270.53
2022-08-03T19:18:16.904Z,99277.16
2022-08-03T19:21:19.260Z,99282.47
2022-08-03T19:24:23.427Z,99281.53
2022-08-03T19:27:29.878Z,99282.69
2022-08-03T19:34:00.635Z,99281.50
2022-08-03T19:37:03.815Z,99285.25
2022-08-03T19:40:10.227Z,99286.94
2022-08-03T19:43:49.285Z,99288.62
2022-08-03T19:47:06.702Z,99288.69
2022-08-03T19:50:14.003Z,99293.63
2022-08-03T19:53:17.259Z,99296.53
2022-08-03T19:56:23.954Z,99293.28
2022-08-03T19:59:27.035Z,99294.09
2022-08-03T20:02:29.899Z,99293.00
2022-08-03T20:05:45.018Z,99293.28
2022-08-03T20:08:54.644Z,99295.72
2022-08-03T20:11:57.513Z,99307.78
2022-08-03T20:14:59.991Z,99304.09
2022-08-03T20:18:03.025Z,99301.91
2022-08-03T20:21:14.731Z,99299.34
2022-08-03T20:24:23.728Z,99294.06
2022-08-03T20:28:07.718Z,99305.44
2022-08-03T20:31:09.877Z,99302.34
2022-08-03T20:34:12.561Z,99315.22
2022-08-03T20:37:20.012Z,99301.13
2022-08-03T20:40:22.990Z,99306.41
2022-08-03T20:43:29.686Z,99301.22
2022-08-03T20:46:46.484Z,99309.56
2022-08-03T20:49:54.824Z,99307.34
2022-08-03T20:52:58.406Z,99306.41
2022-08-03T20:56:05.134Z,99312.63
2022-08-03T20:59:14.862Z,99305.50
2022-08-03T21:02:19.722Z,99303.28
2022-08-03T21:05:48.462Z,99306.03
2022-08-03T21:09:00.120Z,99302.16
2022-08-03T21:12:07.922Z,99303.44
2022-08-03T21:13:02.301Z,99284.44
2022-08-03T21:15:10.987Z,99295.91
2022-08-03T21:18:37.334Z,99300.03
2022-08-03T21:21:42.123Z,99307.19
2022-08-03T21:24:44.646Z,99308.06
2022-08-03T21:27:47.799Z,99314.06
2022-08-03T21:30:50.058Z,99311.72
2022-08-03T21:33:53.648Z,99316.13
2022-08-03T21:36:55.897Z,99321.56
2022-08-03T21:39:58.138Z,99323.19
2022-08-03T21:43:00.816Z,99316.41
2022-08-03T21:46:05.206Z,99323.50
2022-08-03T21:50:07.262Z,99325.44
2022-08-03T21:52:33.880Z,99324.59
2022-08-03T21:55:38.748Z,99324.59
2022-08-03T21:59:00.344Z,99325.75
2022-08-03T22:02:03.344Z,99326.59
2022-08-03T22:05:06.562Z,99330.94
2022-08-03T22:08:08.922Z,99337.19
2022-08-03T22:11:11.154Z,99335.31
2022-08-03T22:14:13.945Z,99339.34
2022-08-03T22:17:53.899Z,99331.78
2022-08-03T22:20:38.388Z,99342.62
2022-08-03T22:23:43.900Z,99343.22
2022-08-03T22:27:07.084Z,99341.62
2022-08-03T22:30:15.314Z,99346.22
2022-08-03T22:33:18.817Z,99343.78
2022-08-03T22:36:23.545Z,99344.87
2022-08-03T22:39:28.046Z,99352.16
2022-08-03T22:42:30.653Z,99357.56
2022-08-03T22:46:07.617Z,99357.03
2022-08-03T22:48:55.419Z,99356.78
2022-08-03T22:51:59.083Z,99357.31
2022-08-03T22:55:07.467Z,99357.06
2022-08-03T22:58:09.684Z,99359.47
2022-08-03T23:01:13.489Z,99362.72
2022-08-03T23:04:17.915Z,99353.00
2022-08-03T23:07:28.117Z,99363.00
2022-08-03T23:10:31.023Z,99355.44
2022-08-03T23:13:33.569Z,99363.25
2022-08-03T23:16:39.151Z,99367.06
2022-08-03T23:19:47.943Z,99361.66
2022-08-03T23:22:50.627Z,99369.47
2022-08-03T23:25:53.576Z,99365.66
2022-08-03T23:28:56.046Z,99358.22
2022-08-03T23:31:59.531Z,99356.91
2022-08-03T23:35:22.185Z,99362.19
2022-08-03T23:38:35.350Z,99365.38
2022-08-03T23:41:39.157Z,99360.47
2022-08-03T23:44:43.521Z,99361.78
2022-08-03T23:47:47.671Z,99360.72
2022-08-03T23:50:59.318Z,99353.16
2022-08-03T23:54:07.642Z,99353.91
2022-08-03T23:57:30.107Z,99361.06
